createdAt,value
2018-12-06T00:00:04.904Z,0.70
2018-12-06T00:02:32.569Z,1.00
2018-12-06T00:05:00.337Z,0.80
2018-12-06T00:07:27.808Z,0.93
2018-12-06T00:09:55.726Z,1.10
2018-12-06T00:12:23.232Z,0.90
2018-12-06T00:14:53.556Z,0.80
2018-12-06T00:17:21.233Z,1.20
2018-12-06T00:19:48.781Z,0.90
2018-12-06T00:22:16.546Z,1.00
2018-12-06T00:24:44.342Z,0.90
2018-12-06T00:27:12.197Z,1.17
2018-12-06T00:29:39.742Z,0.97
2018-12-06T00:32:07.297Z,1.43
2018-12-06T00:34:34.929Z,0.80
2018-12-06T00:37:02.416Z,1.10
2018-12-06T00:39:29.945Z,1.10
2018-12-06T00:41:57.389Z,1.00
2018-12-06T00:44:24.914Z,1.10
2018-12-06T00:46:52.658Z,0.80
2018-12-06T00:49:20.293Z,0.80
2018-12-06T00:51:47.790Z,1.20
2018-12-06T00:54:15.240Z,1.10
2018-12-06T00:56:42.924Z,1.23
2018-12-06T00:59:10.574Z,1.20
2018-12-06T01:01:38.028Z,0.90
2018-12-06T01:04:05.773Z,0.70
2018-12-06T01:06:33.414Z,1.00
2018-12-06T01:09:00.902Z,0.97
2018-12-06T01:11:28.362Z,1.00
2018-12-06T01:13:55.822Z,0.93
2018-12-06T01:16:23.562Z,1.00
2018-12-06T01:18:51.152Z,0.90
2018-12-06T01:21:18.907Z,1.00
2018-12-06T01:23:46.551Z,1.20
2018-12-06T01:26:14.034Z,0.90
2018-12-06T01:28:41.536Z,0.90
2018-12-06T01:31:08.997Z,0.93
2018-12-06T01:33:36.674Z,1.23
2018-12-06T01:36:04.442Z,1.00
2018-12-06T01:38:31.972Z,0.80
2018-12-06T01:40:59.426Z,1.20
2018-12-06T01:43:26.953Z,0.93
2018-12-06T01:45:54.595Z,0.90
2018-12-06T01:48:22.209Z,1.10
2018-12-06T01:50:49.949Z,0.90
2018-12-06T01:53:17.392Z,1.10
2018-12-06T01:55:44.956Z,0.87
2018-12-06T01:58:12.627Z,0.90
2018-12-06T02:00:40.392Z,1.23
2018-12-06T02:03:07.862Z,0.97
2018-12-06T02:05:35.297Z,1.23
2018-12-06T02:08:02.788Z,0.90
2018-12-06T02:10:30.395Z,1.40
2018-12-06T02:12:57.988Z,1.20
2018-12-06T02:15:25.755Z,1.10
2018-12-06T02:17:53.405Z,1.00
2018-12-06T02:20:20.863Z,1.10
2018-12-06T02:22:48.626Z,0.93
2018-12-06T02:25:16.102Z,1.00
2018-12-06T02:27:43.601Z,0.90
2018-12-06T02:30:11.106Z,0.90
2018-12-06T02:32:38.666Z,1.00
2018-12-06T02:35:06.339Z,1.10
2018-12-06T02:37:33.970Z,0.80
2018-12-06T02:40:01.459Z,0.90
2018-12-06T02:42:28.996Z,1.10
2018-12-06T02:44:56.479Z,1.07
2018-12-06T02:47:23.951Z,0.90
2018-12-06T02:49:51.716Z,0.80
2018-12-06T02:52:19.300Z,1.10
2018-12-06T02:54:46.806Z,1.10
2018-12-06T02:57:14.346Z,0.80
2018-12-06T02:59:41.800Z,0.90
2018-12-06T03:02:09.307Z,1.17
2018-12-06T03:04:36.772Z,0.90
2018-12-06T03:07:04.563Z,1.03
2018-12-06T03:09:32.291Z,1.17
2018-12-06T03:11:59.742Z,0.77
2018-12-06T03:14:27.206Z,1.00
2018-12-06T03:16:54.739Z,1.10
2018-12-06T03:19:22.429Z,0.80
2018-12-06T03:21:50.199Z,0.70
2018-12-06T03:24:17.756Z,0.90
2018-12-06T03:26:45.424Z,0.90
2018-12-06T03:29:13.222Z,0.77
2018-12-06T03:31:40.977Z,0.97
2018-12-06T03:34:08.735Z,1.03
2018-12-06T03:36:36.950Z,1.00
2018-12-06T03:39:06.126Z,0.90
2018-12-06T03:41:33.867Z,0.73
2018-12-06T03:44:01.319Z,1.10
2018-12-06T03:46:28.778Z,0.80
2018-12-06T03:48:56.231Z,0.77
2018-12-06T03:51:24.001Z,0.87
2018-12-06T03:53:51.453Z,0.87
2018-12-06T03:56:19.142Z,1.10
2018-12-06T03:58:46.617Z,1.03
2018-12-06T04:01:14.061Z,0.73
2018-12-06T04:03:41.612Z,1.00
2018-12-06T04:06:09.368Z,1.10
2018-12-06T04:08:36.830Z,0.90
2018-12-06T04:11:04.314Z,1.10
2018-12-06T04:13:32.056Z,1.10
2018-12-06T04:15:59.698Z,1.23
2018-12-06T04:18:27.281Z,1.17
2018-12-06T04:20:54.917Z,1.00
2018-12-06T04:23:22.445Z,1.10
2018-12-06T04:25:49.949Z,1.10
2018-12-06T04:28:17.401Z,1.00
2018-12-06T04:30:45.189Z,1.30
2018-12-06T04:33:12.856Z,0.87
2018-12-06T04:35:40.310Z,1.07
2018-12-06T04:38:07.853Z,1.00
2018-12-06T04:40:35.306Z,1.30
2018-12-06T04:43:02.789Z,1.03
2018-12-06T04:45:30.539Z,1.50
2018-12-06T04:47:58.301Z,0.83
2018-12-06T04:50:25.771Z,1.23
2018-12-06T04:52:53.534Z,1.33
2018-12-06T04:55:21.174Z,1.33
2018-12-06T04:57:48.641Z,0.80
2018-12-06T05:00:16.405Z,1.80
2018-12-06T05:02:44.076Z,1.00
2018-12-06T05:05:11.597Z,1.03
2018-12-06T05:07:39.077Z,1.00
2018-12-06T05:10:06.641Z,1.30
2018-12-06T05:12:34.108Z,0.97
2018-12-06T05:15:01.541Z,1.17
2018-12-06T05:17:29.039Z,1.00
2018-12-06T05:19:56.786Z,1.20
2018-12-06T05:22:24.564Z,2.60
2018-12-06T05:24:52.025Z,4.10
2018-12-06T05:27:19.940Z,4.20
2018-12-06T05:29:47.408Z,4.43
2018-12-06T05:32:14.955Z,4.87
2018-12-06T05:34:42.398Z,4.33
2018-12-06T05:37:09.869Z,3.83
2018-12-06T05:39:37.353Z,3.60
2018-12-06T05:42:04.814Z,3.83
2018-12-06T05:44:32.254Z,3.20
2018-12-06T05:46:59.712Z,3.20
2018-12-06T05:49:27.210Z,3.00
2018-12-06T05:51:54.858Z,2.43
2018-12-06T05:54:22.392Z,2.73
2018-12-06T05:56:49.893Z,2.27
2018-12-06T05:59:17.521Z,2.87
2018-12-06T06:01:45.116Z,3.03
2018-12-06T06:04:12.896Z,3.33
2018-12-06T06:06:40.653Z,2.90
2018-12-06T06:09:08.290Z,2.50
2018-12-06T06:11:35.778Z,2.53
2018-12-06T06:14:03.258Z,2.07
2018-12-06T06:16:32.191Z,2.30
2018-12-06T06:19:00.096Z,1.77
2018-12-06T06:21:27.553Z,2.27
2018-12-06T06:23:55.327Z,2.60
2018-12-06T06:26:23.078Z,2.20
2018-12-06T06:28:50.842Z,2.17
2018-12-06T06:31:18.333Z,2.23
2018-12-06T06:33:46.076Z,2.13
2018-12-06T06:36:13.828Z,2.20
2018-12-06T06:38:41.481Z,2.20
2018-12-06T06:41:08.963Z,2.60
2018-12-06T06:43:36.429Z,1.87
2018-12-06T06:46:03.873Z,2.07
2018-12-06T06:48:31.327Z,1.93
2018-12-06T06:50:58.886Z,1.90
2018-12-06T06:53:26.341Z,1.97
2018-12-06T06:55:53.806Z,1.80
2018-12-06T06:58:21.561Z,1.80
2018-12-06T07:00:49.115Z,1.73
2018-12-06T07:03:16.698Z,1.70
2018-12-06T07:05:44.257Z,1.87
2018-12-06T07:08:11.880Z,1.80
2018-12-06T07:10:39.547Z,2.00
2018-12-06T07:13:07.232Z,1.87
2018-12-06T07:15:34.716Z,1.73
2018-12-06T07:18:02.154Z,1.83
2018-12-06T07:20:29.785Z,1.90
2018-12-06T07:22:57.681Z,1.63
2018-12-06T07:25:25.313Z,1.50
2018-12-06T07:27:52.800Z,1.77
2018-12-06T07:30:20.258Z,1.80
2018-12-06T07:32:48.790Z,1.30
2018-12-06T07:35:16.516Z,1.73
2018-12-06T07:37:44.269Z,1.63
2018-12-06T07:40:11.910Z,2.00
2018-12-06T07:42:39.504Z,1.90
2018-12-06T07:45:07.245Z,1.60
2018-12-06T07:47:34.729Z,1.53
2018-12-06T07:50:02.453Z,1.53
2018-12-06T07:52:29.939Z,1.53
2018-12-06T07:54:57.563Z,1.13
2018-12-06T07:57:25.170Z,1.50
2018-12-06T07:59:52.793Z,1.60
2018-12-06T08:02:20.265Z,1.70
2018-12-06T08:04:48.017Z,1.43
2018-12-06T08:07:15.624Z,1.57
2018-12-06T08:09:43.127Z,1.67
2018-12-06T08:12:10.566Z,1.40
2018-12-06T08:14:38.049Z,1.67
2018-12-06T08:17:05.772Z,1.40
2018-12-06T08:19:33.376Z,1.60
2018-12-06T08:22:00.857Z,1.70
2018-12-06T08:24:28.438Z,1.60
2018-12-06T08:26:56.055Z,1.37
2018-12-06T08:29:23.707Z,1.40
2018-12-06T08:31:51.450Z,1.50
2018-12-06T08:34:19.186Z,1.70
2018-12-06T08:36:46.856Z,1.33
2018-12-06T08:39:14.370Z,1.60
2018-12-06T08:41:41.860Z,1.27
2018-12-06T08:44:09.578Z,1.47
2018-12-06T08:46:37.093Z,1.40
2018-12-06T08:49:04.567Z,1.60
2018-12-06T08:51:32.175Z,1.47
2018-12-06T08:53:59.778Z,1.43
2018-12-06T08:56:27.547Z,1.67
2018-12-06T08:58:54.998Z,1.70
2018-12-06T09:01:22.766Z,1.30
2018-12-06T09:03:50.226Z,1.60
2018-12-06T09:06:17.987Z,1.40
2018-12-06T09:08:45.442Z,1.47
2018-12-06T09:11:13.205Z,1.20
2018-12-06T09:13:40.819Z,1.37
2018-12-06T09:16:08.237Z,1.30
2018-12-06T09:18:35.797Z,1.30
2018-12-06T09:21:03.242Z,1.40
2018-12-06T09:23:30.813Z,1.10
2018-12-06T09:25:58.497Z,1.50
2018-12-06T09:28:26.003Z,1.23
2018-12-06T09:31:00.877Z,1.27
2018-12-06T09:33:23.101Z,1.30
2018-12-06T09:35:50.721Z,1.30
2018-12-06T09:38:18.336Z,1.30
2018-12-06T09:40:45.995Z,1.37
2018-12-06T09:43:13.551Z,1.27
2018-12-06T09:45:41.318Z,1.40
2018-12-06T09:48:08.944Z,1.20
2018-12-06T09:50:36.545Z,1.53
2018-12-06T09:53:04.184Z,1.23
2018-12-06T09:55:31.760Z,1.40
2018-12-06T09:57:59.517Z,1.10
2018-12-06T10:00:27.141Z,1.63
2018-12-06T10:02:54.626Z,1.13
2018-12-06T10:05:22.202Z,1.50
2018-12-06T10:07:49.649Z,1.33
2018-12-06T10:10:17.113Z,1.40
2018-12-06T10:12:44.573Z,1.20
2018-12-06T10:15:12.177Z,1.30
2018-12-06T10:17:39.626Z,1.27
2018-12-06T10:20:07.621Z,1.20
2018-12-06T10:22:35.231Z,1.10
2018-12-06T10:25:02.816Z,1.40
2018-12-06T10:27:30.551Z,1.40
2018-12-06T10:29:58.109Z,1.20
2018-12-06T10:32:25.675Z,1.23
2018-12-06T10:34:53.636Z,1.30
2018-12-06T10:37:21.510Z,1.30
2018-12-06T10:39:50.599Z,1.40
2018-12-06T10:42:18.277Z,1.27
2018-12-06T10:44:45.759Z,1.17
2018-12-06T10:47:13.205Z,1.33
2018-12-06T10:49:40.664Z,1.10
2018-12-06T10:52:08.113Z,1.60
2018-12-06T10:54:35.582Z,1.33
2018-12-06T10:57:03.131Z,1.30
2018-12-06T10:59:30.909Z,1.27
2018-12-06T11:02:04.308Z,1.10
2018-12-06T11:04:35.106Z,1.10
2018-12-06T11:07:04.102Z,1.10
2018-12-06T11:09:31.573Z,1.23
2018-12-06T11:11:59.230Z,1.27
2018-12-06T11:14:26.777Z,1.20
2018-12-06T11:16:54.785Z,1.30
2018-12-06T11:19:22.505Z,1.13
2018-12-06T11:21:49.954Z,1.10
2018-12-06T11:24:17.446Z,1.13
2018-12-06T11:26:45.213Z,1.23
2018-12-06T11:29:12.839Z,1.13
2018-12-06T11:31:40.467Z,1.47
2018-12-06T11:34:08.206Z,1.30
2018-12-06T11:36:35.854Z,1.13
2018-12-06T11:39:06.190Z,1.20
2018-12-06T11:41:33.954Z,1.07
2018-12-06T11:44:01.726Z,1.20
2018-12-06T11:46:29.402Z,1.20
2018-12-06T11:48:56.946Z,1.20
2018-12-06T11:51:24.400Z,1.20
2018-12-06T11:53:51.864Z,1.30
2018-12-06T11:56:19.320Z,1.13
2018-12-06T11:58:46.779Z,1.03
2018-12-06T12:01:14.413Z,1.30
2018-12-06T12:03:41.922Z,1.33
2018-12-06T12:06:09.492Z,1.20
2018-12-06T12:08:37.149Z,1.17
2018-12-06T12:11:04.701Z,1.10
2018-12-06T12:13:32.153Z,1.10
2018-12-06T12:15:59.904Z,1.30
2018-12-06T12:18:27.674Z,1.17
2018-12-06T12:20:55.437Z,1.20
2018-12-06T12:23:22.914Z,1.20
2018-12-06T12:25:50.669Z,1.10
2018-12-06T12:28:18.417Z,1.30
2018-12-06T12:30:46.050Z,1.27
2018-12-06T12:33:13.670Z,1.00
2018-12-06T12:35:41.409Z,1.00
2018-12-06T12:38:09.065Z,0.80
2018-12-06T12:40:36.629Z,1.17
2018-12-06T12:43:04.698Z,1.40
2018-12-06T12:45:32.185Z,1.30
2018-12-06T12:47:59.659Z,0.90
2018-12-06T12:50:27.278Z,1.10
2018-12-06T12:52:54.799Z,1.10
2018-12-06T12:55:22.246Z,1.20
2018-12-06T12:57:50.035Z,1.10
2018-12-06T13:00:17.527Z,1.50
2018-12-06T13:02:45.358Z,1.40
2018-12-06T13:05:12.965Z,1.50
2018-12-06T13:07:40.480Z,1.50
2018-12-06T13:10:07.980Z,1.87
2018-12-06T13:12:35.602Z,1.63
2018-12-06T13:15:03.213Z,1.80
2018-12-06T13:17:30.878Z,1.50
2018-12-06T13:19:58.419Z,1.30
2018-12-06T13:22:26.063Z,1.40
2018-12-06T13:24:53.656Z,1.83
2018-12-06T13:27:21.326Z,1.20
2018-12-06T13:29:48.816Z,1.73
2018-12-06T13:32:16.938Z,1.90
2018-12-06T13:34:44.639Z,1.50
2018-12-06T13:37:14.986Z,1.47
2018-12-06T13:39:42.609Z,1.40
2018-12-06T13:42:10.039Z,1.40
2018-12-06T13:44:37.670Z,1.87
2018-12-06T13:47:05.377Z,1.30
2018-12-06T13:49:33.045Z,1.20
2018-12-06T13:52:01.526Z,1.17
2018-12-06T13:54:29.218Z,1.60
2018-12-06T13:56:56.745Z,4.17
2018-12-06T13:59:24.509Z,4.53
2018-12-06T14:01:51.970Z,10.70
2018-12-06T14:04:19.891Z,10.07
2018-12-06T14:06:47.495Z,7.27
2018-12-06T14:09:15.120Z,8.47
2018-12-06T14:11:42.613Z,10.70
2018-12-06T14:14:10.216Z,5.10
2018-12-06T14:16:37.724Z,4.03
2018-12-06T14:19:05.306Z,4.00
2018-12-06T14:21:32.778Z,3.33
2018-12-06T14:24:00.306Z,3.53
2018-12-06T14:26:27.785Z,3.40
2018-12-06T14:28:55.541Z,3.10
2018-12-06T14:31:23.310Z,4.20
2018-12-06T14:33:51.071Z,3.40
2018-12-06T14:36:18.738Z,3.00
2018-12-06T14:38:46.233Z,3.50
2018-12-06T14:41:13.747Z,3.33
2018-12-06T14:43:41.218Z,3.30
2018-12-06T14:46:09.002Z,3.30
2018-12-06T14:48:36.557Z,2.93
2018-12-06T14:51:04.110Z,2.93
2018-12-06T14:53:31.561Z,3.33
2018-12-06T14:55:59.126Z,3.13
2018-12-06T14:58:26.587Z,3.00
2018-12-06T15:00:54.349Z,2.70
2018-12-06T15:03:22.093Z,3.20
2018-12-06T15:05:49.565Z,3.43
2018-12-06T15:08:17.024Z,3.63
2018-12-06T15:10:44.790Z,3.23
2018-12-06T15:13:12.435Z,3.17
2018-12-06T15:15:40.029Z,3.20
2018-12-06T15:18:07.778Z,3.37
2018-12-06T15:20:35.542Z,3.60
2018-12-06T15:23:03.345Z,3.43
2018-12-06T15:25:30.985Z,3.27
2018-12-06T15:27:58.557Z,3.03
2018-12-06T15:30:26.205Z,3.23
2018-12-06T15:32:53.659Z,3.67
2018-12-06T15:35:21.101Z,3.00
2018-12-06T15:37:48.661Z,3.87
2018-12-06T15:40:19.656Z,3.20
2018-12-06T15:42:47.129Z,3.63
2018-12-06T15:45:14.693Z,2.83
2018-12-06T15:47:42.199Z,2.80
2018-12-06T15:50:09.833Z,3.47
2018-12-06T15:52:37.403Z,3.10
2018-12-06T15:55:06.094Z,3.63
2018-12-06T15:57:33.533Z,3.87
2018-12-06T16:00:01.090Z,3.90
2018-12-06T16:02:28.704Z,4.47
2018-12-06T16:04:56.396Z,3.80
2018-12-06T16:07:24.008Z,3.50
2018-12-06T16:09:51.813Z,4.27
2018-12-06T16:12:19.489Z,4.20
2018-12-06T16:14:47.014Z,4.00
2018-12-06T16:17:14.756Z,4.03
2018-12-06T16:19:42.389Z,3.80
2018-12-06T16:22:09.945Z,4.57
2018-12-06T16:24:37.405Z,4.50
2018-12-06T16:27:04.926Z,4.23
2018-12-06T16:29:32.664Z,3.80
2018-12-06T16:32:00.138Z,4.43
2018-12-06T16:34:27.898Z,3.83
2018-12-06T16:36:55.655Z,4.87
2018-12-06T16:39:23.112Z,4.53
2018-12-06T16:41:50.883Z,4.10
2018-12-06T16:44:18.346Z,3.70
2018-12-06T16:46:46.113Z,3.83
2018-12-06T16:49:13.570Z,4.00
2018-12-06T16:51:41.261Z,3.73
2018-12-06T16:54:08.717Z,3.67
2018-12-06T16:56:36.172Z,4.00
2018-12-06T16:59:03.618Z,3.77
2018-12-06T17:01:31.158Z,3.80
2018-12-06T17:03:58.848Z,3.60
2018-12-06T17:06:26.392Z,4.47
2018-12-06T17:08:54.141Z,3.97
2018-12-06T17:11:21.619Z,4.30
2018-12-06T17:13:49.255Z,3.67
2018-12-06T17:16:16.734Z,4.33
2018-12-06T17:18:47.166Z,4.07
2018-12-06T17:21:17.342Z,4.17
2018-12-06T17:23:45.046Z,3.77
2018-12-06T17:26:12.693Z,3.97
2018-12-06T17:28:40.583Z,3.60
2018-12-06T17:31:08.333Z,3.80
2018-12-06T17:33:35.977Z,3.67
2018-12-06T17:36:03.466Z,4.13
2018-12-06T17:38:30.922Z,4.07
2018-12-06T17:40:58.377Z,3.80
2018-12-06T17:43:25.836Z,4.07
2018-12-06T17:45:53.404Z,4.30
2018-12-06T17:48:21.156Z,3.57
2018-12-06T17:50:48.621Z,3.60
2018-12-06T17:53:16.373Z,3.63
2018-12-06T17:55:51.307Z,3.00
2018-12-06T17:58:18.987Z,3.50
2018-12-06T18:00:46.739Z,3.63
2018-12-06T18:03:14.503Z,3.50
2018-12-06T18:05:42.154Z,4.07
2018-12-06T18:08:09.721Z,3.90
2018-12-06T18:10:37.603Z,4.20
2018-12-06T18:13:05.210Z,3.10
2018-12-06T18:15:33.082Z,3.60
2018-12-06T18:18:03.398Z,3.97
2018-12-06T18:20:30.909Z,3.93
2018-12-06T18:22:58.470Z,3.20
2018-12-06T18:25:26.113Z,3.77
2018-12-06T18:27:53.681Z,4.10
2018-12-06T18:30:21.172Z,3.80
2018-12-06T18:32:48.629Z,3.40
2018-12-06T18:35:16.378Z,3.10
2018-12-06T18:37:44.141Z,3.00
2018-12-06T18:40:11.598Z,3.00
2018-12-06T18:42:39.349Z,3.73
2018-12-06T18:45:06.817Z,3.63
2018-12-06T18:47:34.595Z,3.33
2018-12-06T18:50:02.034Z,3.97
2018-12-06T18:52:29.698Z,3.10
2018-12-06T18:54:57.273Z,3.00
2018-12-06T18:57:24.893Z,3.33
2018-12-06T18:59:52.386Z,3.43
2018-12-06T19:02:19.873Z,2.93
2018-12-06T19:04:47.420Z,3.00
2018-12-06T19:07:14.890Z,3.10
2018-12-06T19:09:42.638Z,2.80
2018-12-06T19:12:10.516Z,3.30
2018-12-06T19:14:38.067Z,3.07
2018-12-06T19:17:05.621Z,3.13
2018-12-06T19:19:33.094Z,3.10
2018-12-06T19:22:00.839Z,3.00
2018-12-06T19:24:28.298Z,3.10
2018-12-06T19:26:55.773Z,3.03
2018-12-06T19:29:23.538Z,2.73
2018-12-06T19:31:50.989Z,2.50
2018-12-06T19:34:18.449Z,3.10
2018-12-06T19:36:45.920Z,3.07
2018-12-06T19:39:13.371Z,3.10
2018-12-06T19:41:40.844Z,2.90
2018-12-06T19:44:08.277Z,3.60
2018-12-06T19:46:35.746Z,2.80
2018-12-06T19:49:03.505Z,2.50
2018-12-06T19:51:30.952Z,2.80
2018-12-06T19:53:58.734Z,2.90
2018-12-06T19:56:26.187Z,2.60
2018-12-06T19:58:53.949Z,3.30
2018-12-06T20:01:21.405Z,3.17
2018-12-06T20:03:49.073Z,2.90
2018-12-06T20:06:17.313Z,3.03
2018-12-06T20:08:44.912Z,3.40
2018-12-06T20:11:12.476Z,2.40
2018-12-06T20:13:39.926Z,3.13
2018-12-06T20:16:07.371Z,2.70
2018-12-06T20:18:35.041Z,2.60
2018-12-06T20:21:02.501Z,2.90
2018-12-06T20:23:30.078Z,3.10
2018-12-06T20:25:57.524Z,2.57
2018-12-06T20:28:26.593Z,3.07
2018-12-06T20:30:54.482Z,2.87
2018-12-06T20:33:21.962Z,2.80
2018-12-06T20:35:49.498Z,2.80
2018-12-06T20:38:16.958Z,2.53
2018-12-06T20:40:44.490Z,2.30
2018-12-06T20:43:12.175Z,2.63
2018-12-06T20:45:39.853Z,2.57
2018-12-06T20:48:07.716Z,3.33
2018-12-06T20:50:35.479Z,2.90
2018-12-06T20:53:02.918Z,3.03
2018-12-06T20:55:30.383Z,2.63
2018-12-06T20:57:57.850Z,2.13
2018-12-06T21:00:25.306Z,2.57
2018-12-06T21:02:52.774Z,2.40
2018-12-06T21:05:20.527Z,2.33
2018-12-06T21:07:48.157Z,2.50
2018-12-06T21:10:15.615Z,2.77
2018-12-06T21:12:43.156Z,2.10
2018-12-06T21:15:10.668Z,2.93
2018-12-06T21:17:38.154Z,2.30
2018-12-06T21:20:05.965Z,2.70
2018-12-06T21:22:33.570Z,2.10
2018-12-06T21:25:01.131Z,2.53
2018-12-06T21:27:28.746Z,2.17
2018-12-06T21:29:56.300Z,2.27
2018-12-06T21:32:23.754Z,2.50
2018-12-06T21:34:51.202Z,2.43
2018-12-06T21:37:19.657Z,2.40
2018-12-06T21:39:47.425Z,3.07
2018-12-06T21:42:14.947Z,2.23
2018-12-06T21:44:42.646Z,2.50
2018-12-06T21:47:12.020Z,2.47
2018-12-06T21:49:39.645Z,2.67
2018-12-06T21:52:07.092Z,2.40
2018-12-06T21:54:34.624Z,2.80
2018-12-06T21:57:02.394Z,2.90
2018-12-06T21:59:29.829Z,2.20
2018-12-06T22:05:02.525Z,2.40
2018-12-06T22:07:30.309Z,2.40
2018-12-06T22:09:58.056Z,2.67
2018-12-06T22:12:25.528Z,2.47
2018-12-06T22:14:52.976Z,2.53
2018-12-06T22:17:20.437Z,2.37
2018-12-06T22:19:48.206Z,2.60
2018-12-06T22:22:15.666Z,2.83
2018-12-06T22:24:43.110Z,2.60
2018-12-06T22:27:10.553Z,2.30
2018-12-06T22:29:38.033Z,3.03
2018-12-06T22:32:05.810Z,3.20
2018-12-06T22:34:33.253Z,2.93
2018-12-06T22:37:01.018Z,2.37
2018-12-06T22:39:28.464Z,2.40
2018-12-06T22:41:56.066Z,2.40
2018-12-06T22:44:23.712Z,2.77
2018-12-06T22:46:51.194Z,2.23
2018-12-06T22:49:18.948Z,1.90
2018-12-06T22:51:46.402Z,2.20
2018-12-06T22:54:14.360Z,2.43
2018-12-06T22:56:41.930Z,2.20
2018-12-06T22:59:09.381Z,2.60
2018-12-06T23:01:40.329Z,2.73
2018-12-06T23:04:08.110Z,2.03
2018-12-06T23:06:35.753Z,2.00
2018-12-06T23:09:06.285Z,2.20
2018-12-06T23:11:33.738Z,2.30
2018-12-06T23:14:01.495Z,2.83
2018-12-06T23:16:28.941Z,2.40
2018-12-06T23:18:56.598Z,2.50
2018-12-06T23:21:24.075Z,1.93
2018-12-06T23:23:51.799Z,2.20
2018-12-06T23:26:19.312Z,1.87
2018-12-06T23:28:46.754Z,2.40
2018-12-06T23:31:14.314Z,2.10
2018-12-06T23:33:42.078Z,2.23
2018-12-06T23:36:09.535Z,2.57
2018-12-06T23:38:36.998Z,2.20
2018-12-06T23:41:04.445Z,2.40
2018-12-06T23:43:31.915Z,2.67
2018-12-06T23:45:59.552Z,2.37
2018-12-06T23:48:27.014Z,2.10
2018-12-06T23:50:55.512Z,2.23
2018-12-06T23:53:23.157Z,2.47
2018-12-06T23:55:50.662Z,2.47
2018-12-06T23:58:18.112Z,2.20
